This is the latest recevied weather packets stored in our database for station/object EA3HRE-10. If no packets are shown the sender has not sent any weather packets the latest 10 day(s).
| Time | Temp. | Humidity | Pressure | Rain* | Wind** | Luminosity | Snow |
|---|---|---|---|---|---|---|---|
| 1778026443 | 21.67° C | 51% | 1011.6 hPa | - | - | - | - |
| 1778025542 | 21.67° C | 52% | 1011.7 hPa | - | - | - | - |
| 1778024642 | 22.22° C | 51% | 1011.7 hPa | - | - | - | - |
| 1778023742 | 22.22° C | 51% | 1011.7 hPa | - | - | - | - |
| 1778022842 | 22.22° C | 51% | 1011.5 hPa | - | - | - | - |
| 1778021942 | 22.22° C | 51% | 1011.5 hPa | - | - | - | - |
| 1778021042 | 22.22° C | 50% | 1011 hPa | - | - | - | - |
| 1778020142 | 22.22° C | 50% | 1011.2 hPa | - | - | - | - |
| 1778019242 | 22.22° C | 50% | 1011.8 hPa | - | - | - | - |
| 1778018342 | 22.78° C | 49% | 1012.3 hPa | - | - | - | - |
| 1778017441 | 22.78° C | 49% | 1012.4 hPa | - | - | - | - |
| 1778016541 | 22.78° C | 50% | 1012.5 hPa | - | - | - | - |
| 1778015641 | 22.78° C | 49% | 1012.3 hPa | - | - | - | - |
| 1778014741 | 22.22° C | 50% | 1012.3 hPa | - | - | - | - |
| 1778013841 | 22.22° C | 50% | 1011.9 hPa | - | - | - | - |
| 1778013350 | 22.22° C | 50% | 1012 hPa | - | - | - | - |
| 1778002147 | 23.33° C | 46% | 1010.5 hPa | - | - | - | - |
| 1778001247 | 23.33° C | 46% | 1011 hPa | - | - | - | - |
| 1778000346 | 23.89° C | 45% | 1011.2 hPa | - | - | - | - |
| 1777999446 | 23.89° C | 47% | 1011.2 hPa | - | - | - | - |
| 1777998546 | 23.89° C | 46% | 1011.2 hPa | - | - | - | - |
| 1777997646 | 23.89° C | 43% | 1011 hPa | - | - | - | - |
| 1777996746 | 24.44° C | 44% | 1010.7 hPa | - | - | - | - |
| 1777995846 | 24.44° C | 44% | 1010.7 hPa | - | - | - | - |
| 1777994946 | 25° C | 43% | 1010.8 hPa | - | - | - | - |
* Rain since midnight (hover to see other rain measurements)
** Current wind speed in m/s (hover to see current wind gust speed)